Hlavní strana
METAR-TAF:

METAR-TAF

Letiště :

In Aménas, Alžírsko

zeměpisná šířka: 28-03N, zeměpisná délka: 009-38E, výška: 562 m

Aktuální stav počasí

Zpráva byla vytvořena před 49 minutami, v 21:00 UTC
Východní vítr 12 kt
Teplota 16°C
Vlhkost vzduchu 21%
Tlak 1021 hPa
Viditelnost 10 km a více
Žádná oblačnost pod 1500 m, nevyskytují se cumulonimby.

METAR: DAUZ 282100Z 08012KT CAVOK 16/M06 Q1021

Čas: 22:49 (21:49 UTC)

Předpověď počasí

Zpráva byla vytvořena před 4 hodinami a 49 minutami, v 17:00 UTC
Předpověď platná od 28 v 18 UTC do 01 v 18 UTC
Východojihovýchodní vítr 10 kt
Viditelnost: 8000 m
Pravděpodobnost 40% :
Dočasný
od 01 v 08 UTC do 01 v 12 UTC
Jihovýchodní vítr 20 kt
Viditelnost: 4000 m
nízko zvířený písek

TAF: DAUZ 281700Z 2818/0118 12010KT 8000 NSC PROB40 TEMPO 0108/0112 13020KT 4000 DRSA

Stav a předpovědi počasí z více než 4 000 letišť (zprávy METAR a TAF).

Červené a žluté tečky na mapě představují dostupné meteorologické stanice.

Když kurzor umístíte na tečku, zobrazí se název stanice.

Pak kliknutím zobrazíte stav a předpověď počasí.

Chcete-li změnit mapu, kliknutím na zelené tlačítko se znaménkem +mapu přiblížíte, kliknutím na zelené tlačítko se znaménkem – mapu oddálíte a kliknutím na zelené šipky přejdete na sousední mapy.


METAR-TAF: